Time;durP1;ratioP1;P1;durP2;ratioP2;P2;SDS_P1;SDS_P2;PMS_P1;PMS_P2;Temp;Humidity;BMP_temperature;BMP_pressure;BME280_temperature;BME280_humidity;BME280_pressure;Samples;Min_cycle;Max_cycle;Signal;HPM_P1;HPM_P2
2023/04/20 00:01:52;;;;;;;6.77;1.60;;;17.20;99.90;;;;;;5100177;28;20187;-70
2023/04/20 00:04:20;;;;;;;6.97;1.50;;;17.20;99.90;;;;;;5113296;28;20214;-71
2023/04/20 00:06:48;;;;;;;6.57;1.60;;;17.20;99.90;;;;;;5112901;28;20171;-70
2023/04/20 00:09:15;;;;;;;5.13;1.50;;;17.20;99.90;;;;;;5113109;28;20179;-71
2023/04/20 00:11:43;;;;;;;6.33;2.17;;;17.20;99.90;;;;;;5096546;28;20550;-70
2023/04/20 00:14:10;;;;;;;7.77;2.27;;;17.20;99.90;;;;;;5093931;28;20182;-71
2023/04/20 00:16:37;;;;;;;7.47;2.13;;;17.30;99.90;;;;;;5113403;28;20174;-70
2023/04/20 00:19:06;;;;;;;14.73;2.00;;;17.20;99.90;;;;;;5113340;28;20637;-70
2023/04/20 00:21:34;;;;;;;11.47;2.57;;;17.10;99.90;;;;;;5112847;28;20265;-71
2023/04/20 00:24:02;;;;;;;6.20;1.97;;;17.20;99.90;;;;;;5113025;28;20236;-68
2023/04/20 00:26:30;;;;;;;7.03;1.60;;;17.30;99.90;;;;;;5096254;28;20175;-74
2023/04/20 00:28:57;;;;;;;9.00;1.63;;;17.30;99.90;;;;;;5093130;28;20175;-73
2023/04/20 00:31:24;;;;;;;7.97;2.03;;;17.40;99.90;;;;;;5096669;28;20262;-68
2023/04/20 00:33:52;;;;;;;7.57;1.80;;;17.40;99.90;;;;;;5098246;28;20191;-71
2023/04/20 00:36:20;;;;;;;7.73;1.93;;;17.50;99.90;;;;;;5112838;28;20170;-68
2023/04/20 00:38:48;;;;;;;7.23;2.00;;;17.60;99.90;;;;;;5111597;28;20179;-67
2023/04/20 00:41:15;;;;;;;4.50;1.80;;;17.60;99.90;;;;;;5116019;28;20176;-69
2023/04/20 00:43:53;;;;;;;8.27;2.23;;;17.70;99.90;;;;;;5117361;28;20209;-69
2023/04/20 00:46:21;;;;;;;8.13;1.97;;;17.70;99.90;;;;;;5117124;27;20694;-69
2023/04/20 00:48:52;;;;;;;7.57;1.80;;;17.90;99.90;;;;;;5117395;28;20206;-68
2023/04/20 00:51:23;;;;;;;6.90;2.10;;;17.90;99.90;;;;;;5117383;28;20165;-70
2023/04/20 00:53:50;;;;;;;9.40;2.10;;;18.00;99.90;;;;;;5117196;28;20520;-69
2023/04/20 00:56:18;;;;;;;10.37;2.17;;;18.00;99.90;;;;;;5117188;28;20174;-68
2023/04/20 00:58:46;;;;;;;9.33;2.70;;;18.10;99.90;;;;;;5116741;28;20183;-69
2023/04/20 01:01:17;;;;;;;6.00;2.00;;;18.30;99.90;;;;;;5116955;28;20661;-68
2023/04/20 01:03:45;;;;;;;8.83;2.17;;;18.40;99.90;;;;;;5116787;27;20212;-69
2023/04/20 01:06:16;;;;;;;11.90;2.43;;;18.40;99.90;;;;;;5116766;28;20180;-68
2023/04/20 01:08:49;;;;;;;10.17;2.27;;;18.40;99.90;;;;;;5117074;28;20572;-68
2023/04/20 01:11:16;;;;;;;11.40;2.33;;;18.50;99.90;;;;;;5116935;28;20657;-68
2023/04/20 01:13:44;;;;;;;10.03;2.47;;;18.50;99.90;;;;;;5116792;28;20170;-68
2023/04/20 01:16:12;;;;;;;10.83;2.30;;;18.40;99.90;;;;;;5116635;27;20164;-69
2023/04/20 01:18:45;;;;;;;14.70;2.10;;;18.50;99.90;;;;;;5116640;28;20166;-69
2023/04/20 01:21:14;;;;;;;12.43;2.20;;;18.40;99.90;;;;;;5116513;28;20178;-69
2023/04/20 01:23:41;;;;;;;11.50;2.60;;;18.40;99.90;;;;;;5116119;27;20600;-69
2023/04/20 01:26:15;;;;;;;10.73;2.37;;;18.40;99.90;;;;;;5116545;28;20167;-68
2023/04/20 01:28:43;;;;;;;10.73;2.73;;;18.50;99.90;;;;;;5116376;28;20178;-69
2023/04/20 01:31:12;;;;;;;13.13;2.97;;;18.50;99.90;;;;;;5116351;28;20178;-69
2023/04/20 01:33:40;;;;;;;8.83;2.30;;;18.50;99.90;;;;;;5116257;28;20198;-70
2023/04/20 01:36:08;;;;;;;9.83;2.43;;;18.60;99.90;;;;;;5116132;28;20587;-70
2023/04/20 01:38:36;;;;;;;13.43;3.40;;;18.70;99.90;;;;;;5115959;28;20294;-70
2023/04/20 01:41:06;;;;;;;11.10;3.23;;;18.80;99.90;;;;;;5116093;28;20209;-69
2023/04/20 01:43:35;;;;;;;13.53;2.80;;;19.00;99.90;;;;;;5116118;28;20540;-69
2023/04/20 01:46:02;;;;;;;8.37;2.50;;;19.10;99.90;;;;;;5115923;28;20178;-69
2023/04/20 01:48:30;;;;;;;14.33;2.73;;;19.10;99.90;;;;;;5115757;28;20194;-69
2023/04/20 01:50:57;;;;;;;16.93;3.17;;;19.00;99.90;;;;;;5115629;28;20172;-70
2023/04/20 01:53:25;;;;;;;14.03;2.87;;;18.90;99.90;;;;;;5114945;28;20533;-70
2023/04/20 01:55:52;;;;;;;15.43;2.70;;;18.60;99.90;;;;;;5115775;28;20391;-70
2023/04/20 01:58:19;;;;;;;14.30;2.80;;;18.40;99.90;;;;;;5115703;28;20213;-70
2023/04/20 02:00:47;;;;;;;12.40;3.00;;;18.30;99.90;;;;;;5115798;28;20175;-70
2023/04/20 02:03:15;;;;;;;16.90;2.80;;;18.40;99.90;;;;;;5115458;28;20255;-68
2023/04/20 02:05:42;;;;;;;10.00;2.67;;;18.20;99.90;;;;;;5115584;28;20174;-71
2023/04/20 02:08:10;;;;;;;15.27;3.03;;;18.30;99.90;;;;;;5115468;28;20175;-73
2023/04/20 02:10:37;;;;;;;16.80;3.20;;;18.20;99.90;;;;;;5115464;27;20508;-72
2023/04/20 02:13:05;;;;;;;14.30;2.93;;;18.10;99.90;;;;;;5115246;28;20604;-72
2023/04/20 02:15:32;;;;;;;15.37;3.47;;;18.10;99.90;;;;;;5115421;28;20649;-72
2023/04/20 02:17:59;;;;;;;50.17;7.43;;;18.20;99.90;;;;;;5115098;28;20174;-71
2023/04/20 02:20:27;;;;;;;17.03;2.90;;;18.20;99.90;;;;;;5115334;27;20178;-72
2023/04/20 02:22:54;;;;;;;12.57;2.83;;;18.40;99.90;;;;;;5114907;28;20272;-73
2023/04/20 02:25:22;;;;;;;11.70;2.60;;;18.30;99.90;;;;;;5115218;28;20171;-71
2023/04/20 02:27:50;;;;;;;14.20;2.97;;;18.30;99.90;;;;;;5115381;28;20170;-69
2023/04/20 02:30:17;;;;;;;14.93;3.77;;;18.40;99.90;;;;;;5114755;28;20195;-70
2023/04/20 02:32:44;;;;;;;17.57;3.10;;;18.40;99.90;;;;;;5114876;28;20616;-69
2023/04/20 02:35:12;;;;;;;12.93;3.03;;;18.50;99.90;;;;;;5114983;28;20178;-70
2023/04/20 02:37:39;;;;;;;12.07;2.80;;;18.50;99.90;;;;;;5114875;28;20181;-71
2023/04/20 02:40:07;;;;;;;20.63;3.47;;;18.60;99.90;;;;;;5114921;28;20194;-71
2023/04/20 02:42:35;;;;;;;14.07;3.20;;;18.50;99.90;;;;;;5114964;28;20217;-71
2023/04/20 02:45:02;;;;;;;11.67;2.70;;;18.40;99.90;;;;;;5096425;28;20265;-71
2023/04/20 02:47:30;;;;;;;14.60;2.93;;;18.40;99.90;;;;;;5094361;28;20645;-70
2023/04/20 02:49:57;;;;;;;17.53;3.40;;;18.50;99.90;;;;;;5094222;28;20190;-70
2023/04/20 02:52:25;;;;;;;18.63;3.63;;;18.50;99.90;;;;;;5094399;28;20218;-71
2023/04/20 02:54:52;;;;;;;13.30;2.47;;;18.60;99.90;;;;;;5094260;28;20653;-70
2023/04/20 02:57:20;;;;;;;14.43;3.10;;;18.60;99.90;;;;;;5094329;28;20167;-70
2023/04/20 02:59:47;;;;;;;13.67;3.47;;;18.60;99.90;;;;;;5094418;28;20271;-70
2023/04/20 03:02:15;;;;;;;17.37;3.20;;;18.60;99.90;;;;;;5094408;28;20167;-70
2023/04/20 03:04:42;;;;;;;14.03;3.30;;;18.40;99.90;;;;;;5093740;28;20693;-69
2023/04/20 03:07:10;;;;;;;13.80;3.03;;;18.50;99.90;;;;;;5094035;28;20164;-70
2023/04/20 03:09:37;;;;;;;12.50;2.90;;;18.40;99.90;;;;;;5094021;28;20205;-70
2023/04/20 03:12:05;;;;;;;17.30;3.00;;;18.40;99.90;;;;;;5093757;28;20246;-70
2023/04/20 03:14:33;;;;;;;13.40;2.80;;;18.30;99.90;;;;;;5093847;28;20506;-70
2023/04/20 03:17:00;;;;;;;16.30;2.90;;;18.30;99.90;;;;;;5093607;28;20642;-69
2023/04/20 03:19:27;;;;;;;12.10;2.77;;;18.30;99.90;;;;;;5093781;28;20546;-70
2023/04/20 03:21:55;;;;;;;10.33;2.80;;;18.30;99.90;;;;;;5093893;28;20185;-70
2023/04/20 03:24:22;;;;;;;11.03;2.90;;;18.30;99.90;;;;;;5093323;28;20283;-69
2023/04/20 03:26:50;;;;;;;10.83;3.23;;;18.20;99.90;;;;;;5113841;28;20639;-69
2023/04/20 03:29:17;;;;;;;9.70;2.97;;;18.20;99.90;;;;;;5113876;28;20276;-69
2023/04/20 03:31:45;;;;;;;14.07;3.47;;;18.30;99.90;;;;;;5113935;28;20305;-70
2023/04/20 03:34:12;;;;;;;8.60;2.43;;;18.40;99.90;;;;;;5113717;28;20190;-69
2023/04/20 03:36:40;;;;;;;10.73;3.10;;;18.40;99.90;;;;;;5113699;28;20200;-70
2023/04/20 03:39:07;;;;;;;9.73;2.83;;;18.30;99.90;;;;;;5113918;28;20181;-69
2023/04/20 03:41:35;;;;;;;8.13;2.47;;;18.30;99.90;;;;;;5113955;28;20183;-71
2023/04/20 03:44:02;;;;;;;11.97;2.73;;;18.20;99.90;;;;;;5113567;28;20222;-70
2023/04/20 03:46:29;;;;;;;12.07;2.87;;;18.20;99.90;;;;;;5113523;28;20178;-69
2023/04/20 03:48:57;;;;;;;7.77;2.40;;;18.20;99.90;;;;;;5113659;28;20220;-70
2023/04/20 03:51:25;;;;;;;13.37;3.87;;;18.20;99.90;;;;;;5113583;28;20169;-70
2023/04/20 03:53:52;;;;;;;15.83;3.17;;;18.30;99.90;;;;;;5113492;28;20538;-70
2023/04/20 03:56:20;;;;;;;14.60;2.70;;;18.40;99.90;;;;;;5113468;28;20196;-69
2023/04/20 03:58:47;;;;;;;10.90;2.90;;;18.50;99.90;;;;;;5113331;28;20257;-69
2023/04/20 04:01:15;;;;;;;11.27;3.10;;;18.50;99.90;;;;;;5113247;28;20223;-79
2023/04/20 04:03:42;;;;;;;13.43;2.43;;;18.60;99.90;;;;;;5102349;28;20212;-74
2023/04/20 04:06:10;;;;;;;16.03;2.57;;;18.70;99.90;;;;;;5095220;28;20172;-78
2023/04/20 04:08:37;;;;;;;11.90;2.47;;;18.70;99.90;;;;;;5096605;28;20189;-76
2023/04/20 04:11:05;;;;;;;12.20;2.27;;;18.70;99.90;;;;;;5092919;28;20217;-74
2023/04/20 04:13:33;;;;;;;16.30;2.87;;;18.80;99.90;;;;;;5092784;28;20235;-74
2023/04/20 04:16:00;;;;;;;16.10;3.27;;;18.90;99.90;;;;;;5092417;28;20204;-76
2023/04/20 04:18:31;;;;;;;7.80;2.77;;;19.10;99.90;;;;;;5093009;28;20636;-77
2023/04/20 04:21:01;;;;;;;16.60;3.10;;;19.10;99.90;;;;;;5113008;28;20613;-73
2023/04/20 04:23:29;;;;;;;11.83;2.70;;;19.20;99.90;;;;;;5103096;28;20718;-77
2023/04/20 04:25:57;;;;;;;7.60;2.60;;;19.40;99.90;;;;;;5098174;28;20706;-74
2023/04/20 04:28:25;;;;;;;14.30;2.50;;;19.50;99.90;;;;;;5108158;28;20206;-74
2023/04/20 04:30:53;;;;;;;15.10;2.80;;;19.60;99.90;;;;;;5101019;28;20185;-76
2023/04/20 04:33:20;;;;;;;11.77;2.63;;;19.70;99.90;;;;;;5092271;28;20209;-76
2023/04/20 04:35:48;;;;;;;9.30;2.47;;;19.70;99.90;;;;;;5103157;28;20211;-74
2023/04/20 04:38:15;;;;;;;13.00;2.40;;;19.70;99.90;;;;;;5112796;28;20186;-75
2023/04/20 04:40:44;;;;;;;8.50;1.87;;;19.70;99.90;;;;;;5099954;28;20193;-75
2023/04/20 04:43:12;;;;;;;8.10;2.37;;;19.80;99.90;;;;;;5092243;28;20217;-76
2023/04/20 04:45:42;;;;;;;11.00;2.77;;;19.80;99.90;;;;;;5100179;28;20608;-74
2023/04/20 04:48:10;;;;;;;9.20;2.30;;;19.70;99.90;;;;;;5112730;28;20664;-77
2023/04/20 04:50:39;;;;;;;10.67;2.50;;;19.50;99.90;;;;;;5096572;28;20649;-77
2023/04/20 04:53:06;;;;;;;13.00;2.30;;;19.50;99.90;;;;;;5092561;28;20299;-75
2023/04/20 04:55:34;;;;;;;5.87;2.33;;;19.50;99.90;;;;;;5107409;28;20190;-75
2023/04/20 04:58:02;;;;;;;7.13;2.57;;;19.50;99.90;;;;;;5112531;28;20585;-73
2023/04/20 05:00:30;;;;;;;11.40;2.77;;;19.50;99.90;;;;;;5112763;28;20271;-75
2023/04/20 05:02:57;;;;;;;9.07;2.80;;;19.30;99.90;;;;;;5102288;28;20201;-75
2023/04/20 05:05:25;;;;;;;9.73;2.37;;;19.20;99.90;;;;;;5112711;28;20224;-75
2023/04/20 05:07:52;;;;;;;19.00;3.33;;;19.20;99.90;;;;;;5101780;28;20172;-76
2023/04/20 05:10:20;;;;;;;14.40;2.80;;;19.00;99.90;;;;;;5092540;28;20262;-75
2023/04/20 05:12:47;;;;;;;12.30;2.40;;;18.90;99.90;;;;;;5085924;28;20182;-72
2023/04/20 05:15:15;;;;;;;16.00;4.63;;;18.80;99.90;;;;;;5091883;28;20177;-73
2023/04/20 05:17:42;;;;;;;15.87;3.47;;;18.70;99.90;;;;;;5094282;28;20178;-75
2023/04/20 05:20:10;;;;;;;14.87;2.87;;;18.80;99.90;;;;;;5110427;28;20175;-72
2023/04/20 05:22:38;;;;;;;17.90;3.97;;;18.70;99.90;;;;;;5110270;28;20182;-69
2023/04/20 05:25:07;;;;;;;18.03;3.47;;;18.60;99.90;;;;;;5111098;28;20540;-75
2023/04/20 05:27:34;;;;;;;19.57;3.23;;;18.50;99.90;;;;;;5103078;28;20561;-74
2023/04/20 05:30:02;;;;;;;11.40;2.60;;;18.40;99.90;;;;;;5105390;28;20259;-78
2023/04/20 05:32:29;;;;;;;13.67;2.53;;;18.40;99.90;;;;;;5099811;28;20647;-74
2023/04/20 05:34:57;;;;;;;8.80;2.40;;;18.40;99.90;;;;;;5094207;28;20211;-77
2023/04/20 05:37:24;;;;;;;15.83;3.40;;;18.30;99.90;;;;;;5094919;28;20623;-73
2023/04/20 05:39:52;;;;;;;16.27;2.47;;;18.40;99.90;;;;;;5101505;28;20187;-75
2023/04/20 05:42:19;;;;;;;13.07;2.70;;;18.30;99.90;;;;;;5111323;28;20661;-78
2023/04/20 05:44:47;;;;;;;20.87;3.13;;;18.20;99.90;;;;;;5104314;28;20182;-75
2023/04/20 05:47:16;;;;;;;25.40;4.20;;;18.20;99.90;;;;;;5106625;28;20323;-78
2023/04/20 05:49:44;;;;;;;15.97;2.67;;;18.10;99.90;;;;;;5100728;28;20195;-76
2023/04/20 05:52:12;;;;;;;19.83;3.50;;;18.10;99.90;;;;;;5104937;28;20226;-78
2023/04/20 05:54:40;;;;;;;18.37;3.10;;;18.10;99.90;;;;;;5112926;28;20182;-77
2023/04/20 05:57:07;;;;;;;17.23;2.97;;;18.20;99.90;;;;;;5113180;28;20589;-79
2023/04/20 05:59:35;;;;;;;12.67;2.97;;;18.20;99.90;;;;;;5114032;28;20244;-74
2023/04/20 06:02:02;;;;;;;18.50;3.80;;;18.20;99.90;;;;;;5113766;28;20179;-76
2023/04/20 06:04:30;;;;;;;11.40;3.00;;;18.20;99.90;;;;;;5113800;28;20214;-76
2023/04/20 06:06:58;;;;;;;9.07;2.63;;;18.30;99.90;;;;;;5113889;28;20183;-73
2023/04/20 06:09:26;;;;;;;16.83;3.00;;;18.30;99.90;;;;;;5110501;28;20186;-78
2023/04/20 06:11:53;;;;;;;13.20;3.07;;;18.30;99.90;;;;;;5113847;28;20568;-76
2023/04/20 06:14:21;;;;;;;13.13;3.30;;;18.50;99.90;;;;;;5113661;28;20190;-75
2023/04/20 06:16:48;;;;;;;18.50;3.60;;;18.50;99.90;;;;;;5114138;28;20170;-76
2023/04/20 06:19:15;;;;;;;19.90;3.07;;;18.50;99.90;;;;;;5113328;28;20194;-75
2023/04/20 06:21:43;;;;;;;12.97;2.80;;;18.50;99.90;;;;;;5105524;28;20183;-71
2023/04/20 06:24:10;;;;;;;13.27;2.90;;;18.50;99.90;;;;;;5104063;28;20303;-76
2023/04/20 06:26:38;;;;;;;14.20;3.67;;;18.50;99.90;;;;;;5098492;28;20281;-75
2023/04/20 06:29:05;;;;;;;11.30;2.73;;;18.40;99.90;;;;;;5107345;28;20664;-75
2023/04/20 06:31:33;;;;;;;17.63;2.70;;;18.50;99.90;;;;;;5114797;28;20270;-75
2023/04/20 06:34:00;;;;;;;14.57;2.83;;;18.50;99.90;;;;;;5114182;28;20183;-75
2023/04/20 06:36:27;;;;;;;18.80;3.13;;;18.50;99.90;;;;;;5113656;28;20232;-72
2023/04/20 06:38:55;;;;;;;10.40;2.17;;;18.50;99.90;;;;;;5113456;28;20183;-73
2023/04/20 06:41:22;;;;;;;14.27;3.00;;;18.40;99.90;;;;;;5113129;28;20646;-76
2023/04/20 06:43:50;;;;;;;19.03;3.23;;;18.40;99.90;;;;;;5113708;28;20226;-73
2023/04/20 06:46:17;;;;;;;12.33;2.93;;;18.40;99.90;;;;;;5113780;28;20222;-75
2023/04/20 06:48:45;;;;;;;16.63;3.20;;;18.40;99.90;;;;;;5113151;28;20283;-75
2023/04/20 06:51:13;;;;;;;9.07;2.87;;;18.40;99.90;;;;;;5113519;28;20182;-72
2023/04/20 06:53:40;;;;;;;14.80;3.30;;;18.40;99.90;;;;;;5113621;28;20189;-75
2023/04/20 06:56:08;;;;;;;14.63;2.53;;;18.30;99.90;;;;;;5112995;27;20178;-75
2023/04/20 06:58:35;;;;;;;14.50;2.90;;;18.30;99.90;;;;;;5113418;28;20220;-75
2023/04/20 07:01:03;;;;;;;13.17;2.57;;;18.30;99.90;;;;;;5113238;28;20273;-75
2023/04/20 07:03:31;;;;;;;13.70;2.93;;;18.30;99.90;;;;;;5112830;28;20206;-72
2023/04/20 07:05:58;;;;;;;24.20;4.03;;;18.20;99.90;;;;;;5113330;28;20549;-76
2023/04/20 07:08:26;;;;;;;12.60;2.87;;;18.20;99.90;;;;;;5113515;28;20542;-75
2023/04/20 07:10:53;;;;;;;11.80;2.60;;;18.20;99.90;;;;;;5112636;28;20175;-76
2023/04/20 07:13:20;;;;;;;13.53;2.90;;;18.20;99.90;;;;;;5113091;28;20578;-74
2023/04/20 07:15:48;;;;;;;10.60;2.43;;;18.10;99.90;;;;;;5113698;28;20710;-71
2023/04/20 07:18:15;;;;;;;13.90;2.80;;;18.10;99.90;;;;;;5114432;28;20171;-74
2023/04/20 07:20:43;;;;;;;18.20;2.57;;;18.10;99.90;;;;;;5114055;28;20212;-73
2023/04/20 07:23:10;;;;;;;14.23;2.90;;;18.10;99.90;;;;;;5112923;28;20241;-73
2023/04/20 07:25:37;;;;;;;16.70;3.00;;;18.10;99.90;;;;;;5112482;28;20175;-75
2023/04/20 07:28:05;;;;;;;13.77;2.90;;;18.00;99.90;;;;;;5112974;28;20189;-74
2023/04/20 07:30:32;;;;;;;14.47;2.73;;;17.90;99.90;;;;;;5112937;28;20255;-75
2023/04/20 07:33:00;;;;;;;11.90;2.50;;;17.90;99.90;;;;;;5112341;28;20173;-74
2023/04/20 07:35:27;;;;;;;10.73;2.70;;;18.00;99.90;;;;;;5112771;28;20175;-75
2023/04/20 07:37:54;;;;;;;13.70;2.67;;;18.00;99.90;;;;;;5112491;28;20193;-73
2023/04/20 07:40:22;;;;;;;12.43;2.93;;;18.00;99.90;;;;;;5112362;28;20209;-75
2023/04/20 07:42:49;;;;;;;10.50;2.90;;;17.90;99.90;;;;;;5111110;28;20233;-74
2023/04/20 07:45:17;;;;;;;16.13;2.73;;;17.90;99.90;;;;;;5112685;28;20178;-77
2023/04/20 07:47:46;;;;;;;11.70;3.00;;;17.90;99.90;;;;;;5111966;28;20303;-77
2023/04/20 07:50:13;;;;;;;11.93;2.97;;;17.90;99.90;;;;;;5111754;28;20167;-76
2023/04/20 07:52:41;;;;;;;14.20;3.00;;;17.90;99.90;;;;;;5112446;27;20722;-77
2023/04/20 07:55:10;;;;;;;11.53;2.47;;;17.90;99.90;;;;;;5111939;28;20223;-71
2023/04/20 07:57:38;;;;;;;11.67;2.43;;;17.90;99.90;;;;;;5112197;28;20259;-74
2023/04/20 08:00:08;;;;;;;15.97;2.93;;;17.80;99.90;;;;;;5112365;28;20247;-76
2023/04/20 08:02:36;;;;;;;12.07;2.90;;;17.80;99.90;;;;;;5110511;28;20187;-77
2023/04/20 08:05:03;;;;;;;8.80;2.80;;;17.80;99.90;;;;;;5112440;28;20722;-76
2023/04/20 08:07:31;;;;;;;9.13;2.43;;;17.90;99.90;;;;;;5112355;28;20316;-76
2023/04/20 08:10:00;;;;;;;12.10;2.70;;;17.80;99.90;;;;;;5111843;28;20175;-74
2023/04/20 08:12:27;;;;;;;13.83;3.23;;;17.80;99.90;;;;;;5112156;28;20171;-76
2023/04/20 08:14:59;;;;;;;12.90;2.73;;;17.70;99.90;;;;;;5112546;28;20197;-76
2023/04/20 08:17:27;;;;;;;9.37;2.80;;;17.70;99.90;;;;;;5116107;28;20193;-75
2023/04/20 08:19:54;;;;;;;10.43;2.47;;;17.70;99.90;;;;;;5112125;28;20182;-76
2023/04/20 08:22:25;;;;;;;23.03;3.33;;;17.70;99.90;;;;;;5112019;28;20175;-75
2023/04/20 08:24:53;;;;;;;11.13;2.93;;;17.70;99.90;;;;;;5111415;28;20661;-74
2023/04/20 08:27:20;;;;;;;10.70;2.63;;;17.60;99.90;;;;;;5112105;28;20175;-76
2023/04/20 08:29:48;;;;;;;9.27;3.03;;;17.60;99.90;;;;;;5112158;28;20198;-76
2023/04/20 08:32:17;;;;;;;12.80;3.10;;;17.60;99.90;;;;;;5106622;28;20490;-75
2023/04/20 08:34:45;;;;;;;13.00;2.93;;;17.60;99.90;;;;;;5096881;28;20657;-71
2023/04/20 08:37:12;;;;;;;11.37;2.80;;;17.70;99.90;;;;;;5091568;28;20179;-73
2023/04/20 08:39:40;;;;;;;14.30;2.90;;;17.60;99.90;;;;;;5091210;28;20184;-73
2023/04/20 08:42:11;;;;;;;14.73;2.97;;;17.60;99.90;;;;;;5089088;28;20201;-76
2023/04/20 08:44:42;;;;;;;8.20;2.40;;;17.60;99.90;;;;;;5096879;28;20236;-72
2023/04/20 08:47:11;;;;;;;16.20;3.00;;;17.60;99.90;;;;;;5091114;28;20262;-75
2023/04/20 08:49:45;;;;;;;6.57;2.30;;;17.50;99.90;;;;;;5094157;28;20191;-76
2023/04/20 08:52:16;;;;;;;8.07;3.10;;;17.50;99.90;;;;;;5091579;28;20187;-77
2023/04/20 08:54:43;;;;;;;8.00;2.83;;;17.50;99.90;;;;;;5093739;28;20716;-76
2023/04/20 08:57:14;;;;;;;12.77;3.47;;;17.50;99.90;;;;;;5092401;28;20205;-75
2023/04/20 08:59:41;;;;;;;11.97;3.10;;;17.40;99.90;;;;;;5089759;28;20704;-76
2023/04/20 09:02:11;;;;;;;11.67;2.70;;;17.40;99.90;;;;;;5106237;28;20205;-74
2023/04/20 09:04:42;;;;;;;11.97;2.53;;;17.40;99.90;;;;;;5115622;28;20217;-74
2023/04/20 09:07:22;;;;;;;7.67;3.07;;;17.40;99.90;;;;;;5115352;28;20171;-75
2023/04/20 09:10:00;;;;;;;13.03;2.77;;;17.40;99.90;;;;;;5115300;28;20171;-75
2023/04/20 09:12:28;;;;;;;11.77;2.60;;;17.30;99.90;;;;;;5119343;28;20265;-74
2023/04/20 09:14:55;;;;;;;11.93;2.73;;;17.30;99.90;;;;;;5116632;28;20217;-79
2023/04/20 09:17:36;;;;;;;13.30;2.67;;;17.30;99.90;;;;;;5117638;27;20210;-78
2023/04/20 09:20:04;;;;;;;8.83;2.97;;;17.30;99.90;;;;;;5095048;28;20183;-73
2023/04/20 09:22:33;;;;;;;11.23;2.63;;;17.40;99.90;;;;;;5094826;28;20206;-75
2023/04/20 09:25:15;;;;;;;9.57;2.40;;;17.40;99.90;;;;;;5107674;28;20274;-76
2023/04/20 09:27:43;;;;;;;14.60;2.47;;;17.40;99.90;;;;;;5115432;28;20175;-77
2023/04/20 09:30:10;;;;;;;8.50;2.80;;;17.40;99.90;;;;;;5115336;28;20217;-77
2023/04/20 09:32:38;;;;;;;9.03;2.73;;;17.30;99.90;;;;;;5114740;27;20190;-76
2023/04/20 09:35:07;;;;;;;10.27;2.47;;;17.30;99.90;;;;;;5115083;28;20207;-76
2023/04/20 09:37:35;;;;;;;12.50;3.10;;;17.30;99.90;;;;;;5114928;28;20175;-76
2023/04/20 09:40:07;;;;;;;11.73;2.63;;;17.30;99.90;;;;;;5114658;28;20189;-77
2023/04/20 09:42:38;;;;;;;9.43;2.67;;;17.30;99.90;;;;;;5114956;27;20657;-78
2023/04/20 09:45:07;;;;;;;7.87;2.63;;;17.30;99.90;;;;;;5112422;28;20175;-76
2023/04/20 09:47:40;;;;;;;9.93;2.13;;;17.40;99.90;;;;;;5104438;28;20231;-76
2023/04/20 09:50:13;;;;;;;12.67;2.53;;;17.40;99.90;;;;;;5094662;28;20181;-77
2023/04/20 09:52:42;;;;;;;14.83;2.33;;;17.40;99.90;;;;;;5094614;28;20187;-76
2023/04/20 09:55:10;;;;;;;8.93;2.90;;;17.40;99.90;;;;;;5094098;28;20174;-76
2023/04/20 09:57:39;;;;;;;10.90;2.57;;;17.30;99.90;;;;;;5092839;28;20198;-76
2023/04/20 10:00:11;;;;;;;7.23;2.70;;;17.30;99.90;;;;;;5094333;28;20657;-76
2023/04/20 10:02:39;;;;;;;11.20;2.73;;;17.20;99.90;;;;;;5093644;28;20179;-74
2023/04/20 10:05:10;;;;;;;9.47;3.10;;;17.20;99.90;;;;;;5094319;28;20183;-78
2023/04/20 10:07:38;;;;;;;8.47;2.60;;;17.20;99.90;;;;;;5094033;28;20217;-76
2023/04/20 10:10:11;;;;;;;9.00;2.60;;;17.10;99.90;;;;;;5092550;28;20186;-75
2023/04/20 10:12:55;;;;;;;6.27;2.40;;;17.10;99.90;;;;;;5091063;28;20186;-76
2023/04/20 10:15:26;;;;;;;13.43;2.53;;;17.10;99.90;;;;;;5093227;28;20774;-75
2023/04/20 10:17:53;;;;;;;10.60;2.93;;;17.10;99.90;;;;;;5093478;28;20297;-74
2023/04/20 10:20:25;;;;;;;15.37;2.60;;;17.10;99.90;;;;;;5093376;28;20180;-74
2023/04/20 10:22:55;;;;;;;7.37;2.77;;;17.10;99.90;;;;;;5092716;28;20207;-77
2023/04/20 10:25:28;;;;;;;10.73;2.60;;;17.10;99.90;;;;;;5091514;28;20198;-75
2023/04/20 10:28:07;;;;;;;12.87;3.00;;;17.00;99.90;;;;;;5093578;28;20176;-77
2023/04/20 10:30:35;;;;;;;8.10;2.63;;;17.00;99.90;;;;;;5093048;28;20196;-75
2023/04/20 10:33:11;;;;;;;10.27;2.97;;;17.00;99.90;;;;;;5091638;28;20558;-74
2023/04/20 10:36:03;;;;;;;8.70;2.93;;;16.90;99.90;;;;;;5093123;28;20180;-76
2023/04/20 10:38:35;;;;;;;9.50;2.77;;;17.00;99.90;;;;;;5092562;28;20554;-77
2023/04/20 10:41:10;;;;;;;8.83;2.47;;;17.00;99.90;;;;;;5093234;28;20609;-75
2023/04/20 10:43:40;;;;;;;7.97;2.40;;;16.90;99.90;;;;;;5092767;28;20281;-77
2023/04/20 10:46:25;;;;;;;5.90;2.23;;;16.90;99.90;;;;;;5092467;28;20190;-76
2023/04/20 10:49:02;;;;;;;17.33;2.67;;;16.90;99.90;;;;;;5093167;28;20185;-78
2023/04/20 10:51:33;;;;;;;9.20;2.27;;;16.80;99.90;;;;;;5092925;28;20174;-74
2023/04/20 10:54:08;;;;;;;10.17;2.13;;;16.80;99.90;;;;;;5092209;28;20181;-74
2023/04/20 10:56:44;;;;;;;9.80;2.60;;;16.80;99.90;;;;;;5091389;28;20222;-76
2023/04/20 10:59:14;;;;;;;11.27;2.70;;;16.80;99.90;;;;;;5092624;28;20175;-73
2023/04/20 11:01:43;;;;;;;6.63;2.20;;;16.80;99.90;;;;;;5090846;28;20183;-76
2023/04/20 11:04:11;;;;;;;6.47;2.43;;;16.80;99.90;;;;;;5091269;28;20296;-76
2023/04/20 11:06:41;;;;;;;11.80;2.80;;;16.70;99.90;;;;;;5091413;28;20274;-74
2023/04/20 11:09:29;;;;;;;8.53;2.97;;;16.70;99.90;;;;;;5107935;28;20197;-74
2023/04/20 11:12:08;;;;;;;9.87;2.60;;;16.60;99.90;;;;;;5093092;28;20187;-75
2023/04/20 11:15:01;;;;;;;8.80;2.37;;;16.50;99.90;;;;;;5092152;28;20175;-75
2023/04/20 11:17:33;;;;;;;4.47;2.13;;;16.50;99.90;;;;;;5092383;28;20700;-76
2023/04/20 11:20:13;;;;;;;12.47;2.20;;;16.50;99.90;;;;;;5092115;28;20777;-76
2023/04/20 11:22:42;;;;;;;9.67;2.10;;;16.50;99.90;;;;;;5091800;28;20634;-75
2023/04/20 11:25:11;;;;;;;7.57;2.90;;;16.50;99.90;;;;;;5092303;28;20193;-77
2023/04/20 11:27:41;;;;;;;9.67;1.90;;;16.50;99.90;;;;;;5092581;28;20179;-76
2023/04/20 11:30:13;;;;;;;7.47;2.20;;;16.40;99.90;;;;;;5091803;28;20677;-77
2023/04/20 11:32:40;;;;;;;8.97;2.10;;;16.50;99.90;;;;;;5090817;28;20611;-72
2023/04/20 11:35:09;;;;;;;5.30;1.70;;;16.40;99.90;;;;;;5091871;28;20180;-76
2023/04/20 11:38:03;;;;;;;6.67;1.97;;;16.40;99.90;;;;;;5091559;28;20171;-76
2023/04/20 11:40:30;;;;;;;8.43;2.13;;;16.40;99.90;;;;;;5087451;28;20293;-74
2023/04/20 11:43:03;;;;;;;15.53;2.73;;;16.40;99.90;;;;;;5091967;28;20255;-77
2023/04/20 11:45:35;;;;;;;5.97;1.97;;;16.50;99.90;;;;;;5091477;28;20228;-77
2023/04/20 11:48:03;;;;;;;7.93;2.07;;;16.50;99.90;;;;;;5091855;28;20273;-77
2023/04/20 11:50:30;;;;;;;9.60;2.07;;;16.50;99.90;;;;;;5091648;28;20258;-77
2023/04/20 11:52:58;;;;;;;6.87;2.00;;;16.50;99.90;;;;;;5091475;28;20180;-78
2023/04/20 11:55:25;;;;;;;9.13;1.97;;;16.40;99.90;;;;;;5091549;28;20175;-76
2023/04/20 11:57:52;;;;;;;6.63;2.50;;;16.40;99.90;;;;;;5091687;28;20221;-73
2023/04/20 12:00:20;;;;;;;9.80;2.27;;;16.30;99.90;;;;;;5090346;28;20183;-76
2023/04/20 12:02:48;;;;;;;9.13;2.10;;;16.20;99.90;;;;;;5092412;28;20233;-75
2023/04/20 12:05:15;;;;;;;6.77;2.40;;;16.20;99.90;;;;;;5093792;28;20183;-76
2023/04/20 12:07:43;;;;;;;7.20;2.23;;;16.20;99.90;;;;;;5111718;28;20257;-76
2023/04/20 12:10:10;;;;;;;9.20;2.57;;;16.20;99.90;;;;;;5111878;28;20178;-76
2023/04/20 12:12:40;;;;;;;6.37;1.47;;;16.20;99.90;;;;;;5110457;28;20545;-77
2023/04/20 12:15:08;;;;;;;4.90;1.83;;;16.10;99.90;;;;;;5111637;28;20209;-77
2023/04/20 12:17:36;;;;;;;5.97;2.00;;;16.10;99.90;;;;;;5111942;28;20166;-75
2023/04/20 12:20:07;;;;;;;6.87;2.10;;;16.10;99.90;;;;;;5111706;28;20193;-74
2023/04/20 12:22:35;;;;;;;8.20;2.43;;;16.00;99.90;;;;;;5095024;28;20240;-75
2023/04/20 12:25:04;;;;;;;9.33;1.90;;;16.00;99.90;;;;;;5091418;28;20597;-76
2023/04/20 12:27:31;;;;;;;12.60;2.60;;;16.00;99.90;;;;;;5091563;28;20183;-77
2023/04/20 12:29:58;;;;;;;6.17;2.10;;;16.00;99.90;;;;;;5090862;28;20181;-77
2023/04/20 12:32:26;;;;;;;11.13;2.60;;;15.90;99.90;;;;;;5091349;28;20175;-75
2023/04/20 12:34:53;;;;;;;10.17;2.40;;;15.90;99.90;;;;;;5107909;28;20210;-74
2023/04/20 12:37:20;;;;;;;8.50;1.93;;;15.80;99.90;;;;;;5114568;28;20266;-77
2023/04/20 12:39:48;;;;;;;6.60;1.97;;;15.70;99.90;;;;;;5108330;28;20224;-74
2023/04/20 12:42:15;;;;;;;6.70;2.03;;;15.70;99.90;;;;;;5095458;28;20197;-77
2023/04/20 12:44:43;;;;;;;16.53;2.97;;;15.70;99.90;;;;;;5095091;28;20211;-78
2023/04/20 12:47:12;;;;;;;11.30;2.33;;;15.70;99.90;;;;;;5108803;28;20182;-76
2023/04/20 12:49:39;;;;;;;9.83;2.30;;;15.70;99.90;;;;;;5115599;28;20227;-77